Time;durP1;ratioP1;P1;durP2;ratioP2;P2;SDS_P1;SDS_P2;PMS_P1;PMS_P2;Temp;Humidity;BMP_temperature;BMP_pressure;BME280_temperature;BME280_humidity;BME280_pressure;Samples;Min_cycle;Max_cycle;Signal;HPM_P1;HPM_P2
2023/11/27 00:01:26;;;;;;;19.95;10.40;;;4.40;99.90;;;5.46;100.00;100077.31;5013612;28;20057;-78
2023/11/27 00:03:52;;;;;;;18.35;10.23;;;4.40;99.90;;;5.63;100.00;100064.31;5018372;28;20126;-78
2023/11/27 00:06:18;;;;;;;21.52;10.38;;;4.30;99.90;;;5.72;100.00;100081.22;5016410;28;20090;-78
2023/11/27 00:08:43;;;;;;;20.55;10.75;;;4.40;99.90;;;5.50;100.00;100073.19;5018226;28;20034;-78
2023/11/27 00:11:09;;;;;;;20.52;10.68;;;4.40;99.90;;;5.65;100.00;100078.47;5015169;28;20477;-77
2023/11/27 00:13:35;;;;;;;20.73;10.38;;;4.40;99.90;;;5.78;100.00;100069.59;5016561;28;20045;-77
2023/11/27 00:16:00;;;;;;;19.10;10.02;;;4.50;99.90;;;5.66;100.00;100068.50;5012029;28;20526;-77
2023/11/27 00:18:26;;;;;;;19.58;9.25;;;4.40;99.90;;;5.71;100.00;100069.59;5019125;28;20168;-78
2023/11/27 00:20:52;;;;;;;17.83;8.43;;;4.50;99.90;;;5.68;100.00;100077.25;5021789;28;20481;-78
2023/11/27 00:23:18;;;;;;;16.25;8.18;;;4.40;99.90;;;5.64;100.00;100071.41;5019447;28;20033;-78
2023/11/27 00:25:43;;;;;;;21.77;9.05;;;4.50;99.90;;;5.69;100.00;100071.63;5027550;28;20038;-78
2023/11/27 00:28:09;;;;;;;18.77;8.73;;;4.40;99.90;;;5.80;100.00;100078.34;5012645;28;20461;-78
2023/11/27 00:30:36;;;;;;;17.80;8.07;;;4.50;99.90;;;5.74;100.00;100074.59;5015493;28;20520;-78
2023/11/27 00:33:03;;;;;;;15.48;8.10;;;4.40;99.90;;;5.84;100.00;100071.53;5016575;28;20045;-78
2023/11/27 00:35:29;;;;;;;12.82;7.00;;;4.40;99.90;;;5.69;100.00;100076.22;5013057;28;20038;-78
2023/11/27 00:37:55;;;;;;;11.00;5.97;;;4.40;99.90;;;5.55;100.00;100072.59;5017093;28;20041;-77
2023/11/27 00:40:21;;;;;;;14.15;5.88;;;4.40;99.90;;;5.48;100.00;100067.13;5012439;28;20453;-77
2023/11/27 00:42:46;;;;;;;11.07;5.60;;;4.40;99.90;;;5.51;100.00;100052.38;5019061;28;20041;-78
2023/11/27 00:45:13;;;;;;;12.52;5.63;;;4.30;99.90;;;5.63;100.00;100066.19;5020735;28;20109;-78
2023/11/27 00:47:38;;;;;;;7.60;4.45;;;4.30;99.90;;;5.57;100.00;100063.25;5028658;28;20481;-78
2023/11/27 00:50:05;;;;;;;11.48;4.05;;;4.30;99.90;;;5.52;100.00;100062.16;5017788;28;20026;-78
2023/11/27 00:52:32;;;;;;;12.38;5.10;;;4.30;99.90;;;5.60;100.00;100049.31;5017289;28;20037;-78
2023/11/27 00:54:58;;;;;;;10.02;4.43;;;4.30;99.90;;;5.59;100.00;100044.09;5020103;28;20038;-78
2023/11/27 00:57:23;;;;;;;7.95;3.90;;;4.20;99.90;;;5.64;100.00;100065.16;5013144;28;20046;-78
2023/11/27 00:59:49;;;;;;;7.88;4.22;;;4.20;99.90;;;5.61;100.00;100052.84;5012451;28;20045;-79
2023/11/27 01:02:15;;;;;;;11.82;4.45;;;4.20;99.90;;;5.70;100.00;100050.81;5015453;28;20037;-79
2023/11/27 01:04:42;;;;;;;8.93;4.57;;;4.20;99.90;;;5.66;100.00;100041.44;5015781;28;20572;-78
2023/11/27 01:07:09;;;;;;;11.93;4.65;;;4.20;99.90;;;5.59;100.00;100049.50;5015745;28;20108;-78
2023/11/27 01:09:37;;;;;;;11.27;4.85;;;4.20;99.90;;;5.78;100.00;100047.94;5019922;28;20045;-78
2023/11/27 01:12:03;;;;;;;11.63;4.93;;;4.20;99.90;;;5.83;100.00;100048.19;5022338;28;20030;-78
2023/11/27 01:14:29;;;;;;;14.50;5.43;;;4.20;99.90;;;5.88;100.00;100043.03;5038736;28;20038;-78
2023/11/27 01:16:56;;;;;;;12.55;5.72;;;4.20;99.90;;;5.57;100.00;100043.47;5016952;28;20033;-78
2023/11/27 01:19:22;;;;;;;10.05;5.95;;;4.20;99.90;;;5.64;100.00;100030.81;5012471;28;20494;-78
2023/11/27 01:21:48;;;;;;;9.20;5.32;;;4.20;99.90;;;5.75;100.00;100032.09;5014676;28;20041;-78
2023/11/27 01:24:15;;;;;;;11.85;6.03;;;4.20;99.90;;;5.82;100.00;100032.16;5015072;28;20037;-78
2023/11/27 01:26:41;;;;;;;12.13;5.83;;;4.20;99.90;;;5.75;100.00;100024.00;5018771;28;20034;-78
2023/11/27 01:29:07;;;;;;;12.07;6.18;;;4.30;99.90;;;5.60;100.00;100029.53;5015681;28;20095;-78
2023/11/27 01:31:33;;;;;;;13.43;6.03;;;4.20;99.90;;;5.80;100.00;100035.03;5026919;28;20397;-78
2023/11/27 01:33:58;;;;;;;13.23;6.07;;;4.20;99.90;;;5.64;100.00;100019.97;5014809;28;20042;-78
2023/11/27 01:36:24;;;;;;;13.18;6.20;;;4.20;99.90;;;5.57;100.00;100028.06;5013833;28;20041;-78
2023/11/27 01:38:50;;;;;;;14.70;6.15;;;4.20;99.90;;;5.26;100.00;100020.38;5012319;28;20038;-80
2023/11/27 01:41:16;;;;;;;9.77;5.70;;;4.20;99.90;;;5.41;100.00;100031.09;5012003;28;20038;-79
2023/11/27 01:43:42;;;;;;;11.02;5.20;;;4.20;99.90;;;5.32;100.00;100023.13;5010206;28;20044;-79
2023/11/27 01:46:22;;;;;;;10.10;5.30;;;4.20;99.90;;;5.39;100.00;100012.34;5011896;28;20486;-79
2023/11/27 01:48:48;;;;;;;8.98;4.90;;;4.20;99.90;;;5.31;100.00;99999.81;5011844;28;20041;-79
2023/11/27 01:51:13;;;;;;;9.73;4.55;;;4.20;99.90;;;5.29;100.00;99999.16;5039629;28;20513;-80
2023/11/27 01:53:39;;;;;;;9.90;4.50;;;4.20;99.90;;;5.43;100.00;100008.19;5038891;28;20041;-78
2023/11/27 01:56:06;;;;;;;7.22;4.28;;;4.20;99.90;;;5.53;100.00;100007.84;5020812;28;20053;-78
2023/11/27 01:58:32;;;;;;;8.20;4.55;;;4.20;99.90;;;5.19;100.00;100004.09;5020591;28;20030;-79
2023/11/27 02:00:58;;;;;;;9.65;4.05;;;4.20;99.90;;;5.20;100.00;100002.25;5030657;28;20042;-79
2023/11/27 02:03:24;;;;;;;7.07;4.15;;;4.10;99.90;;;5.25;100.00;99988.94;5010719;28;20030;-78
2023/11/27 02:05:49;;;;;;;7.97;4.45;;;4.10;99.90;;;4.97;100.00;99965.47;5020728;28;20462;-79
2023/11/27 02:08:15;;;;;;;10.65;3.60;;;4.10;99.90;;;5.18;100.00;99983.50;5017940;28;20482;-78
2023/11/27 02:10:41;;;;;;;7.63;4.50;;;4.10;99.90;;;5.18;100.00;99978.06;5017052;28;20042;-79
2023/11/27 02:13:07;;;;;;;7.82;4.00;;;4.10;99.90;;;5.18;100.00;99967.25;5015659;28;20096;-78
2023/11/27 02:15:33;;;;;;;9.07;4.50;;;4.10;99.90;;;5.26;100.00;99972.50;5019360;28;20397;-78
2023/11/27 02:17:58;;;;;;;10.63;4.63;;;4.00;99.90;;;5.36;100.00;99974.84;5020907;28;20033;-79
2023/11/27 02:20:24;;;;;;;7.25;4.30;;;4.10;99.90;;;5.39;100.00;99970.94;5020619;28;20038;-79
2023/11/27 02:22:50;;;;;;;10.98;5.20;;;4.10;99.90;;;5.30;100.00;99960.28;5017330;28;20374;-79
2023/11/27 02:25:16;;;;;;;10.18;5.40;;;4.00;99.90;;;5.24;100.00;99958.34;5028545;28;20148;-79
2023/11/27 02:27:41;;;;;;;8.57;5.20;;;4.10;99.90;;;5.10;100.00;99926.88;5013422;28;20370;-79
2023/11/27 02:30:07;;;;;;;10.68;6.00;;;4.10;99.90;;;5.26;100.00;99945.47;5020304;28;20612;-79
2023/11/27 02:32:33;;;;;;;11.98;6.10;;;4.10;99.90;;;5.24;100.00;99936.72;5017754;28;20510;-78
2023/11/27 02:34:59;;;;;;;12.00;6.10;;;4.10;99.90;;;5.31;100.00;99942.16;5018336;28;20042;-79
2023/11/27 02:37:25;;;;;;;11.88;6.13;;;4.10;99.90;;;5.55;100.00;99940.81;5024165;28;20321;-79
2023/11/27 02:39:50;;;;;;;10.95;6.03;;;4.10;99.90;;;5.56;100.00;99938.97;5031981;28;20030;-78
2023/11/27 02:42:16;;;;;;;9.07;5.40;;;4.10;99.90;;;5.56;100.00;99931.66;5016580;28;20030;-79
2023/11/27 02:44:42;;;;;;;10.88;5.63;;;4.10;99.90;;;5.53;100.00;99932.06;5032317;28;20042;-80
2023/11/27 02:47:08;;;;;;;10.00;5.82;;;4.10;99.90;;;5.54;100.00;99938.34;5018183;28;20030;-80
2023/11/27 02:49:33;;;;;;;12.18;6.43;;;4.10;99.90;;;5.64;100.00;99933.38;5019353;28;20100;-80
2023/11/27 02:51:59;;;;;;;14.45;6.05;;;4.00;99.90;;;5.53;100.00;99915.84;5015777;28;20032;-79
2023/11/27 02:54:25;;;;;;;11.85;6.60;;;4.10;99.90;;;5.58;100.00;99929.63;5026762;28;20411;-79
2023/11/27 02:56:51;;;;;;;12.93;7.13;;;4.00;99.90;;;5.45;100.00;99924.97;5018899;28;20040;-80
2023/11/27 02:59:18;;;;;;;11.98;6.70;;;4.00;99.90;;;5.50;100.00;99937.88;5010908;28;20026;-79
2023/11/27 03:01:43;;;;;;;11.70;7.05;;;4.00;99.90;;;5.32;100.00;99933.88;5017618;28;20037;-79
2023/11/27 03:04:09;;;;;;;13.65;7.40;;;4.00;99.90;;;5.20;100.00;99924.63;5023584;28;20040;-79
2023/11/27 03:06:35;;;;;;;13.43;6.43;;;4.00;99.90;;;5.22;100.00;99913.63;5014489;28;20038;-79
2023/11/27 03:09:04;;;;;;;14.43;7.75;;;4.00;99.90;;;5.16;100.00;99893.63;5018443;28;20152;-79
2023/11/27 03:11:30;;;;;;;12.88;7.20;;;4.00;99.90;;;5.18;100.00;99896.94;5016655;28;20029;-79
2023/11/27 03:13:56;;;;;;;13.85;7.82;;;4.00;99.90;;;5.50;100.00;99899.19;5022443;28;20157;-79
2023/11/27 03:16:21;;;;;;;16.38;8.18;;;4.00;99.90;;;5.53;100.00;99901.50;5024493;28;20030;-79
2023/11/27 03:18:47;;;;;;;15.48;8.38;;;4.00;99.90;;;5.22;100.00;99897.41;5030641;28;20434;-79
2023/11/27 03:21:22;;;;;;;15.18;8.10;;;4.00;99.90;;;5.53;100.00;99902.31;5026618;28;20037;-79
2023/11/27 03:23:48;;;;;;;18.70;9.00;;;4.00;99.90;;;5.29;100.00;99861.22;5016217;28;20469;-79
2023/11/27 03:26:16;;;;;;;17.10;9.20;;;3.90;99.90;;;5.46;100.00;99914.97;5027154;28;20030;-79
2023/11/27 03:28:42;;;;;;;;;;;3.90;99.90;;;5.52;100.00;99902.53;5019568;28;20034;-79
2023/11/27 03:31:09;;;;;;;20.00;9.63;;;3.90;99.90;;;5.59;100.00;99904.22;5015873;28;20012;-79
2023/11/27 03:33:34;;;;;;;18.33;9.50;;;3.90;99.90;;;5.54;100.00;99893.16;5023724;28;20532;-79
2023/11/27 03:36:00;;;;;;;17.50;9.30;;;4.00;99.90;;;5.20;100.00;99883.25;5016003;28;20049;-78
2023/11/27 03:38:26;;;;;;;18.05;9.75;;;4.00;99.90;;;5.36;100.00;99898.31;5026071;28;20033;-79
2023/11/27 03:40:52;;;;;;;21.17;9.95;;;3.90;99.90;;;5.27;100.00;99876.81;5038829;28;20048;-79
2023/11/27 03:43:17;;;;;;;19.90;9.63;;;3.90;99.90;;;5.32;100.00;99887.88;5035089;28;20037;-79
2023/11/27 03:45:43;;;;;;;16.52;10.18;;;3.90;99.90;;;5.42;100.00;99876.66;5024710;28;20034;-78
2023/11/27 03:48:09;;;;;;;15.10;9.50;;;3.90;99.90;;;5.54;100.00;99885.03;5016391;28;20034;-79
2023/11/27 03:50:35;;;;;;;17.83;9.70;;;3.90;99.90;;;5.47;100.00;99881.47;5027202;28;20037;-79
2023/11/27 03:53:01;;;;;;;20.30;10.18;;;3.90;99.90;;;5.49;100.00;99881.28;5014677;28;20042;-79
2023/11/27 03:55:27;;;;;;;17.35;10.40;;;3.90;99.90;;;5.31;100.00;99875.41;5041271;28;20494;-79
2023/11/27 03:57:53;;;;;;;21.50;12.25;;;3.90;99.90;;;5.21;100.00;99868.69;5033487;28;20038;-78
2023/11/27 04:00:18;;;;;;;23.85;12.20;;;3.90;99.90;;;5.16;100.00;99871.97;5022271;28;20049;-78
2023/11/27 04:02:45;;;;;;;20.88;12.25;;;3.90;99.90;;;5.24;100.00;99863.69;5019178;28;20037;-77
2023/11/27 04:05:10;;;;;;;25.33;13.15;;;3.90;99.90;;;5.24;100.00;99871.81;5019179;28;20089;-78
2023/11/27 04:07:36;;;;;;;24.73;14.32;;;3.90;99.90;;;5.39;100.00;99870.84;5017760;28;20177;-78
2023/11/27 04:10:02;;;;;;;25.50;15.18;;;4.00;99.90;;;5.47;100.00;99859.84;5013554;28;20036;-79
2023/11/27 04:12:32;;;;;;;29.02;15.52;;;4.00;99.90;;;5.37;100.00;99852.09;5013355;28;20065;-79
2023/11/27 04:14:59;;;;;;;28.27;15.32;;;4.00;99.90;;;5.28;100.00;99856.84;5023484;28;20060;-78
2023/11/27 04:17:25;;;;;;;29.45;15.95;;;4.00;99.90;;;5.39;100.00;99865.44;5029253;28;20536;-78
2023/11/27 04:19:51;;;;;;;34.67;16.00;;;4.00;99.90;;;5.43;100.00;99864.81;5020771;28;20117;-78
2023/11/27 04:22:17;;;;;;;28.65;16.98;;;4.00;99.90;;;5.24;100.00;99863.69;5015321;28;20490;-78
2023/11/27 04:24:44;;;;;;;30.38;16.83;;;4.00;99.90;;;5.24;100.00;99860.97;5037722;28;20402;-78
2023/11/27 04:27:10;;;;;;;29.92;17.40;;;4.00;99.90;;;5.16;100.00;99859.28;5018854;28;20033;-78
2023/11/27 04:29:36;;;;;;;26.27;15.55;;;4.00;99.90;;;5.23;100.00;99853.09;5016715;28;20060;-78
2023/11/27 04:32:01;;;;;;;28.90;16.83;;;4.00;99.90;;;5.06;100.00;99852.59;5018128;28;20030;-78
2023/11/27 04:34:27;;;;;;;36.50;16.98;;;4.00;99.90;;;5.16;100.00;99855.75;5018151;28;20078;-78
2023/11/27 04:36:53;;;;;;;30.58;16.73;;;4.10;99.90;;;5.27;100.00;99838.94;5013217;28;20038;-78
2023/11/27 04:39:19;;;;;;;31.08;16.15;;;4.10;99.90;;;5.11;100.00;99836.59;5009324;28;20042;-78
2023/11/27 04:41:45;;;;;;;29.08;16.08;;;4.10;99.90;;;5.50;100.00;99843.19;5034196;28;20038;-78
2023/11/27 04:44:10;;;;;;;29.27;16.35;;;4.00;99.90;;;5.47;100.00;99839.03;5014644;28;20068;-78
2023/11/27 04:46:36;;;;;;;30.70;16.33;;;4.10;99.90;;;5.51;100.00;99834.03;5029904;28;20095;-78
2023/11/27 04:49:02;;;;;;;32.85;16.88;;;4.10;99.90;;;5.43;100.00;99837.75;5018165;28;20096;-78
2023/11/27 04:51:29;;;;;;;29.25;16.23;;;4.10;99.90;;;5.27;100.00;99836.25;5013584;28;20030;-78
2023/11/27 04:53:55;;;;;;;30.95;15.90;;;4.10;99.90;;;5.46;100.00;99837.38;5034956;28;20158;-78
2023/11/27 04:56:21;;;;;;;30.52;16.67;;;4.10;99.90;;;5.29;100.00;99836.03;5027828;28;20152;-78
2023/11/27 04:58:46;;;;;;;28.58;15.73;;;4.10;99.90;;;5.42;100.00;99827.97;5020719;28;20045;-78
2023/11/27 05:01:12;;;;;;;35.00;16.73;;;4.00;99.90;;;5.30;100.00;99807.97;5018216;28;20107;-78
2023/11/27 05:03:38;;;;;;;27.98;15.93;;;4.10;99.90;;;5.37;100.00;99814.22;5014851;28;20046;-78
2023/11/27 05:06:03;;;;;;;30.92;15.48;;;4.10;99.90;;;5.24;100.00;99804.19;5017361;28;20036;-78
2023/11/27 05:08:29;;;;;;;29.88;15.02;;;4.10;99.90;;;5.23;100.00;99804.41;5012474;28;20366;-78
2023/11/27 05:10:55;;;;;;;30.27;16.13;;;4.10;99.90;;;5.33;100.00;99815.66;5018156;28;20064;-78
2023/11/27 05:13:21;;;;;;;29.10;15.93;;;4.10;99.90;;;5.46;100.00;99815.72;5012641;28;20041;-77
2023/11/27 05:15:47;;;;;;;32.65;14.10;;;4.10;99.90;;;5.38;100.00;99804.25;5022029;28;20042;-79
2023/11/27 05:18:12;;;;;;;28.65;15.23;;;4.10;99.90;;;5.49;100.00;99813.66;5022700;28;20033;-80
2023/11/27 05:20:38;;;;;;;28.30;14.75;;;4.10;99.90;;;5.53;100.00;99810.31;5032606;28;20049;-78
2023/11/27 05:23:04;;;;;;;27.45;14.48;;;4.10;99.90;;;5.44;100.00;99803.44;5014228;28;20079;-78
2023/11/27 05:25:30;;;;;;;27.30;15.82;;;4.10;99.90;;;5.49;100.00;99810.94;5018739;28;20110;-78
2023/11/27 05:27:56;;;;;;;27.80;15.43;;;4.10;99.90;;;5.41;100.00;99809.25;5014098;28;20048;-78
2023/11/27 05:30:24;;;;;;;31.33;16.40;;;4.10;99.90;;;5.37;100.00;99806.09;5011723;28;20052;-79
2023/11/27 05:32:50;;;;;;;27.85;15.38;;;4.00;99.90;;;5.42;100.00;99800.09;5012504;28;20045;-78
2023/11/27 05:35:16;;;;;;;27.60;15.35;;;4.00;99.90;;;5.40;100.00;99800.28;5017215;28;20060;-77
2023/11/27 05:37:41;;;;;;;30.98;16.15;;;4.00;99.90;;;4.97;100.00;99787.84;5014090;28;20548;-78
2023/11/27 05:40:10;;;;;;;29.30;16.38;;;4.00;99.90;;;5.36;100.00;99787.38;5020661;28;20374;-78
2023/11/27 05:42:39;;;;;;;30.77;17.33;;;4.00;99.90;;;5.58;100.00;99782.66;5024724;28;20061;-77
2023/11/27 05:45:12;;;;;;;30.38;15.73;;;4.00;99.90;;;5.59;100.00;99785.16;5032148;28;20037;-78
2023/11/27 05:47:39;;;;;;;34.58;16.90;;;4.10;99.90;;;5.22;100.00;99784.63;5031722;28;20344;-79
2023/11/27 05:50:06;;;;;;;30.48;16.25;;;4.00;99.90;;;5.15;100.00;99768.38;5016789;28;20037;-78
2023/11/27 05:52:32;;;;;;;32.30;16.97;;;4.00;99.90;;;5.01;100.00;99777.47;5017210;28;20432;-80
2023/11/27 05:54:59;;;;;;;31.85;16.33;;;4.00;99.90;;;5.15;100.00;99775.66;5011639;28;20061;-78
2023/11/27 05:57:25;;;;;;;32.97;16.30;;;4.00;99.90;;;5.23;100.00;99778.19;5032928;28;20038;-78
2023/11/27 05:59:50;;;;;;;26.20;16.00;;;4.00;99.90;;;5.02;100.00;99763.75;5011644;28;20107;-77
2023/11/27 06:02:17;;;;;;;28.65;15.25;;;4.00;99.90;;;4.90;100.00;99760.78;5012086;28;20049;-78
2023/11/27 06:04:45;;;;;;;30.55;16.52;;;4.00;99.90;;;4.98;100.00;99759.78;5010392;28;20136;-77
2023/11/27 06:07:10;;;;;;;30.95;15.80;;;4.00;99.90;;;4.80;100.00;99754.94;5019516;28;20068;-78
2023/11/27 06:09:36;;;;;;;31.83;14.85;;;4.00;99.90;;;4.79;100.00;99752.44;5021703;28;20042;-77
2023/11/27 06:12:02;;;;;;;28.27;15.40;;;4.00;99.90;;;4.95;100.00;99741.28;5022042;28;20037;-77
2023/11/27 06:14:28;;;;;;;25.25;14.00;;;4.00;99.90;;;4.74;100.00;99753.84;5016934;28;20406;-77
2023/11/27 06:16:53;;;;;;;30.92;14.90;;;4.00;99.90;;;4.87;100.00;99750.38;5018226;28;20038;-78
2023/11/27 06:19:19;;;;;;;33.15;14.50;;;4.10;99.90;;;4.75;100.00;99749.31;5012321;28;20060;-78
2023/11/27 06:21:45;;;;;;;24.23;13.50;;;4.00;99.90;;;4.75;100.00;99746.59;5017061;28;20034;-78
2023/11/27 06:24:11;;;;;;;25.48;13.43;;;4.00;99.90;;;4.80;100.00;99743.31;5024734;28;20048;-77
2023/11/27 06:26:36;;;;;;;21.75;12.70;;;4.00;99.90;;;4.91;100.00;99737.31;5015744;28;20049;-76
2023/11/27 06:29:02;;;;;;;23.48;12.52;;;4.10;99.90;;;4.87;100.00;99733.34;5016287;28;20106;-76
2023/11/27 06:31:28;;;;;;;27.77;14.63;;;4.10;99.90;;;4.77;100.00;99733.72;5013790;28;20038;-78
2023/11/27 06:33:56;;;;;;;24.83;14.82;;;4.10;99.90;;;4.82;100.00;99733.94;5018526;28;20025;-77
2023/11/27 06:36:22;;;;;;;26.42;13.75;;;4.10;99.90;;;4.95;100.00;99741.28;5028675;28;20033;-77
2023/11/27 06:38:50;;;;;;;24.52;14.10;;;4.10;99.90;;;4.92;100.00;99732.75;5021528;28;20036;-77
2023/11/27 06:41:16;;;;;;;24.70;14.05;;;4.10;99.90;;;5.09;100.00;99727.81;5021362;28;20034;-78
2023/11/27 06:43:42;;;;;;;21.15;12.63;;;4.10;99.90;;;4.92;100.00;99728.16;5014907;28;20030;-79
2023/11/27 06:46:11;;;;;;;23.75;13.05;;;4.10;99.90;;;4.96;100.00;99725.91;5020421;28;20405;-79
2023/11/27 06:48:37;;;;;;;25.20;13.07;;;4.10;99.90;;;4.82;100.00;99720.44;5015525;28;20442;-80
2023/11/27 06:51:03;;;;;;;20.48;12.23;;;4.10;99.90;;;4.78;100.00;99721.06;5020516;28;20042;-80
2023/11/27 06:53:29;;;;;;;22.98;12.20;;;4.10;99.90;;;4.88;100.00;99713.38;5023898;28;20044;-80
2023/11/27 06:55:55;;;;;;;20.38;11.45;;;4.10;99.90;;;4.87;100.00;99706.31;5018966;28;20045;-78
2023/11/27 06:58:21;;;;;;;25.55;11.70;;;4.10;99.90;;;4.87;100.00;99706.31;5019405;28;20041;-78
2023/11/27 07:00:46;;;;;;;19.70;12.18;;;4.10;99.90;;;4.79;100.00;99709.22;5020664;28;20056;-78
2023/11/27 07:03:12;;;;;;;19.10;11.60;;;4.10;99.90;;;4.50;100.00;99679.56;5030608;28;20486;-79
2023/11/27 07:05:38;;;;;;;21.42;10.50;;;4.00;99.90;;;4.72;100.00;99704.59;5030639;28;20046;-78
2023/11/27 07:08:04;;;;;;;20.85;10.93;;;4.10;99.90;;;4.78;100.00;99707.53;5034029;28;20049;-78
2023/11/27 07:10:29;;;;;;;17.63;10.60;;;4.00;99.90;;;4.89;100.00;99696.13;5015414;28;20026;-77
2023/11/27 07:12:56;;;;;;;21.77;10.90;;;4.10;99.90;;;4.87;100.00;99701.72;5024471;28;20068;-78
2023/11/27 07:15:21;;;;;;;19.33;11.02;;;4.10;99.90;;;4.92;100.00;99693.03;5015187;28;20062;-79
2023/11/27 07:17:47;;;;;;;17.17;10.15;;;4.10;99.90;;;5.07;100.00;99690.16;5014713;28;20097;-79
2023/11/27 07:20:17;;;;;;;18.80;10.90;;;4.10;99.90;;;5.08;100.00;99699.13;5021252;28;20398;-79
2023/11/27 07:22:46;;;;;;;20.08;11.13;;;4.10;99.90;;;4.96;100.00;99694.28;5021133;28;20121;-79
2023/11/27 07:25:16;;;;;;;17.70;10.90;;;4.10;99.90;;;4.90;100.00;99695.09;5021393;28;20030;-79
2023/11/27 07:27:49;;;;;;;21.42;12.80;;;4.00;99.90;;;4.81;100.00;99683.63;5014891;28;20041;-79
2023/11/27 07:30:16;;;;;;;18.30;11.73;;;4.00;99.90;;;4.97;100.00;99674.31;5030246;28;20036;-79
2023/11/27 07:32:44;;;;;;;20.48;12.55;;;4.00;99.90;;;4.75;100.00;99670.94;5015101;28;20041;-78
2023/11/27 07:35:10;;;;;;;23.30;12.93;;;4.00;99.90;;;4.81;100.00;99663.91;5017560;28;20025;-78
2023/11/27 07:37:40;;;;;;;22.33;12.50;;;4.00;99.90;;;4.80;100.00;99662.22;5023202;28;20103;-78
2023/11/27 07:40:14;;;;;;;24.95;12.43;;;4.00;99.90;;;4.87;100.00;99663.88;5017426;28;20079;-78
2023/11/27 07:42:40;;;;;;;23.73;12.27;;;4.00;99.90;;;4.82;100.00;99660.16;5015938;28;20072;-79
2023/11/27 07:45:08;;;;;;;25.60;12.82;;;4.00;99.90;;;4.59;100.00;99662.13;5015056;28;20136;-78
2023/11/27 07:47:34;;;;;;;22.90;13.50;;;4.00;99.90;;;4.60;100.00;99657.56;5015040;28;20041;-78
2023/11/27 07:50:00;;;;;;;22.45;12.88;;;4.00;99.90;;;4.44;100.00;99648.78;5014904;28;20070;-78
2023/11/27 07:52:27;;;;;;;21.45;12.95;;;4.00;99.90;;;4.61;100.00;99649.25;5023950;28;20378;-79
2023/11/27 07:54:55;;;;;;;21.70;11.83;;;4.00;99.90;;;4.49;100.00;99655.44;5024441;28;20053;-78
2023/11/27 07:57:22;;;;;;;23.83;12.23;;;4.00;99.90;;;4.42;100.00;99637.34;5034331;28;20686;-78
2023/11/27 07:59:48;;;;;;;23.60;13.45;;;4.00;99.90;;;4.51;100.00;99637.16;5021579;28;20057;-79
2023/11/27 08:02:15;;;;;;;24.38;12.50;;;4.00;99.90;;;4.50;100.00;99633.63;5019882;28;20100;-80
2023/11/27 08:04:41;;;;;;;24.60;13.60;;;4.00;99.90;;;4.49;100.00;99628.41;5021566;28;20067;-79
2023/11/27 08:07:09;;;;;;;25.02;13.13;;;4.00;99.90;;;4.32;100.00;99620.69;5014588;28;20033;-78
2023/11/27 08:09:36;;;;;;;25.65;13.60;;;4.00;99.90;;;4.37;100.00;99615.50;5025301;28;20041;-79
2023/11/27 08:12:02;;;;;;;27.33;13.80;;;4.00;99.90;;;4.30;100.00;99611.97;5026447;28;20037;-78
2023/11/27 08:14:28;;;;;;;23.60;13.18;;;4.00;99.90;;;4.38;100.00;99606.38;5034715;28;20482;-80
2023/11/27 08:16:54;;;;;;;27.35;14.20;;;4.00;99.90;;;4.41;100.00;99605.97;5017672;28;20614;-79
2023/11/27 08:19:20;;;;;;;20.33;12.55;;;4.00;99.90;;;4.47;100.00;99602.44;5014175;28;20135;-79
2023/11/27 08:21:46;;;;;;;20.05;12.77;;;4.10;99.90;;;4.50;100.00;99611.19;5013377;28;20050;-79
2023/11/27 08:24:15;;;;;;;20.85;13.45;;;4.00;99.90;;;4.64;100.00;99606.66;5014028;28;20026;-79
2023/11/27 08:26:41;;;;;;;21.35;12.10;;;4.00;99.90;;;4.76;100.00;99594.22;5026471;28;20461;-80
2023/11/27 08:29:08;;;;;;;19.95;12.35;;;4.10;99.90;;;4.73;100.00;99594.66;5024370;28;20034;-79
2023/11/27 08:31:35;;;;;;;20.40;12.48;;;4.10;99.90;;;4.73;100.00;99591.94;5029176;28;20095;-80
2023/11/27 08:34:03;;;;;;;23.05;12.70;;;4.10;99.90;;;4.71;100.00;99600.25;5019556;28;20037;-79
2023/11/27 08:36:32;;;;;;;18.75;11.73;;;4.10;99.90;;;4.73;100.00;99602.75;5029783;28;20037;-81
2023/11/27 08:38:57;;;;;;;21.98;12.93;;;4.10;99.90;;;4.65;100.00;99594.84;5015656;28;20036;-79
2023/11/27 08:41:24;;;;;;;19.75;12.10;;;4.10;99.90;;;4.82;100.00;99590.69;5029911;28;20113;-79
2023/11/27 08:43:50;;;;;;;20.75;11.98;;;4.20;99.90;;;4.82;100.00;99588.00;5024933;28;20393;-80
2023/11/27 08:46:17;;;;;;;20.98;11.45;;;4.20;99.90;;;4.67;100.00;99574.66;5018311;28;20038;-79
2023/11/27 08:48:42;;;;;;;22.65;11.90;;;4.20;99.90;;;4.70;100.00;99593.16;5021916;28;20116;-81
2023/11/27 08:51:09;;;;;;;19.73;11.25;;;4.20;99.90;;;4.88;100.00;99584.47;5032403;28;20500;-81
2023/11/27 08:53:35;;;;;;;18.70;10.90;;;4.20;99.90;;;4.82;100.00;99573.69;5019341;28;20390;-78
2023/11/27 08:56:02;;;;;;;17.70;11.40;;;4.20;99.90;;;4.86;100.00;99575.75;5027675;28;20049;-80
2023/11/27 08:58:31;;;;;;;16.70;10.67;;;4.30;99.90;;;5.07;100.00;99584.72;5041160;28;20038;-78
2023/11/27 09:00:57;;;;;;;16.60;9.65;;;4.30;99.90;;;5.09;100.00;99588.03;5034038;28;20100;-79
2023/11/27 09:03:23;;;;;;;16.17;9.02;;;4.30;99.90;;;5.09;100.00;99582.63;5025968;28;20018;-80
2023/11/27 09:05:49;;;;;;;17.50;9.40;;;4.40;99.90;;;4.93;100.00;99583.88;5036891;28;20076;-80
2023/11/27 09:08:15;;;;;;;13.60;8.07;;;4.40;99.90;;;4.92;100.00;99586.78;5015149;28;20466;-79
2023/11/27 09:10:41;;;;;;;12.55;7.85;;;4.40;99.90;;;5.00;100.00;99571.19;5031142;28;20512;-80
2023/11/27 09:13:07;;;;;;;13.68;8.07;;;4.40;99.90;;;5.04;100.00;99582.44;5020963;28;20132;-81
2023/11/27 09:15:36;;;;;;;14.63;7.82;;;4.40;99.90;;;5.02;100.00;99585.31;5009647;28;20033;-82
2023/11/27 09:18:02;;;;;;;14.73;8.20;;;4.50;99.90;;;5.07;100.00;99559.56;5034922;28;20094;-82
2023/11/27 09:20:28;;;;;;;12.60;7.05;;;4.50;99.90;;;5.10;100.00;99561.84;5002984;28;20141;-82
2023/11/27 09:22:56;;;;;;;10.95;7.10;;;4.50;99.90;;;5.12;100.00;99567.88;5025707;28;20053;-80
2023/11/27 09:25:22;;;;;;;11.00;7.30;;;4.50;99.90;;;5.20;100.00;99577.66;5026620;28;20113;-80
2023/11/27 09:27:48;;;;;;;13.55;7.53;;;4.50;99.90;;;5.16;100.00;99579.94;5023880;28;20238;-81
2023/11/27 09:30:14;;;;;;;15.13;7.80;;;4.40;99.90;;;5.23;100.00;99571.84;5038169;28;20026;-80
2023/11/27 09:32:41;;;;;;;12.38;6.93;;;4.40;99.90;;;5.35;100.00;99572.03;5027299;28;20166;-80
2023/11/27 09:35:10;;;;;;;15.38;7.15;;;4.50;99.90;;;5.26;100.00;99572.22;5010025;28;20053;-80
2023/11/27 09:37:37;;;;;;;17.15;7.97;;;4.50;99.90;;;5.30;100.00;99559.97;5024974;28;20423;-80
2023/11/27 09:40:05;;;;;;;14.40;8.07;;;4.50;99.90;;;5.03;100.00;99543.72;5014911;28;20054;-79
2023/11/27 09:42:35;;;;;;;15.50;8.43;;;4.50;99.90;;;5.30;100.00;99567.25;5021774;28;20048;-81
2023/11/27 09:45:12;;;;;;;15.32;9.02;;;4.50;99.90;;;5.20;100.00;99548.72;5019287;28;20041;-82
2023/11/27 09:47:42;;;;;;;13.15;8.65;;;4.50;99.90;;;5.24;100.00;99549.16;5020204;28;20501;-81
2023/11/27 09:50:12;;;;;;;15.30;9.05;;;4.50;99.90;;;5.17;100.00;99546.44;5020321;28;20034;-81
2023/11/27 09:53:04;;;;;;;14.18;8.95;;;4.50;99.90;;;4.99;100.00;99545.19;5015212;28;20053;-80
2023/11/27 09:55:35;;;;;;;16.40;8.93;;;4.40;99.90;;;5.09;100.00;99538.56;5019232;28;20095;-81
2023/11/27 09:58:15;;;;;;;15.18;9.57;;;4.40;99.90;;;5.23;100.00;99531.28;5019617;28;22326;-81
2023/11/27 10:00:48;;;;;;;13.90;8.50;;;4.40;99.90;;;5.26;100.00;99537.06;5021155;28;20046;-81
2023/11/27 10:03:15;;;;;;;17.35;9.05;;;4.40;99.90;;;4.98;100.00;99530.00;5013419;28;20049;-82
2023/11/27 10:05:43;;;;;;;16.80;8.93;;;4.40;99.90;;;5.23;100.00;99520.47;5026330;28;20061;-80
2023/11/27 10:08:09;;;;;;;17.80;9.35;;;4.40;99.90;;;5.24;100.00;99505.88;5024906;28;20266;-82
2023/11/27 10:10:35;;;;;;;16.05;9.55;;;4.40;99.90;;;5.32;100.00;99495.69;5038626;28;20042;-82
2023/11/27 10:13:06;;;;;;;19.13;9.80;;;4.50;99.90;;;5.40;100.00;99501.91;5033459;28;20038;-82